createdAt,value
2023-05-02T00:01:15.206Z,14.50
2023-05-02T00:03:42.781Z,14.50
2023-05-02T00:06:09.853Z,14.50
2023-05-02T00:08:36.591Z,14.50
2023-05-02T00:11:03.327Z,14.50
2023-05-02T00:13:29.972Z,14.50
2023-05-02T00:15:56.708Z,14.50
2023-05-02T00:18:24.304Z,14.40
2023-05-02T00:20:51.515Z,14.40
2023-05-02T00:23:18.209Z,14.40
2023-05-02T00:25:46.145Z,15.30
2023-05-02T00:28:13.752Z,14.30
2023-05-02T00:30:47.216Z,14.30
2023-05-02T00:33:14.787Z,14.30
2023-05-02T00:35:41.866Z,14.30
2023-05-02T00:38:08.570Z,14.20
2023-05-02T00:40:46.263Z,14.20
2023-05-02T00:43:13.138Z,14.20
2023-05-02T00:45:43.627Z,14.10
2023-05-02T00:48:11.042Z,15.10
2023-05-02T00:50:40.512Z,14.70
2023-05-02T00:53:08.077Z,14.00
2023-05-02T00:55:35.213Z,14.00
2023-05-02T00:58:10.925Z,14.00
2023-05-02T01:00:46.460Z,14.00
2023-05-02T01:03:21.165Z,14.00
2023-05-02T01:06:04.823Z,13.90
2023-05-02T01:08:50.063Z,14.70
2023-05-02T01:11:42.987Z,13.90
2023-05-02T01:14:11.724Z,12.00
2023-05-02T01:16:41.094Z,13.70
2023-05-02T01:19:16.378Z,13.70
2023-05-02T01:21:43.247Z,13.90
2023-05-02T01:24:19.908Z,13.70
2023-05-02T01:26:55.510Z,13.70
2023-05-02T01:29:22.439Z,13.60
2023-05-02T01:31:50.556Z,13.60
2023-05-02T01:34:19.320Z,13.60
2023-05-02T01:36:47.599Z,13.60
2023-05-02T01:39:18.633Z,13.50
2023-05-02T01:41:46.942Z,13.50
2023-05-02T01:44:14.878Z,13.50
2023-05-02T01:46:42.887Z,13.40
2023-05-02T01:49:09.748Z,13.40
2023-05-02T01:51:44.699Z,13.40
2023-05-02T01:54:13.782Z,13.40
2023-05-02T01:56:40.433Z,13.40
2023-05-02T01:59:09.809Z,13.30
2023-05-02T02:01:38.446Z,13.30
2023-05-02T02:04:06.720Z,13.30
2023-05-02T02:06:33.855Z,13.20
2023-05-02T02:09:00.848Z,13.20
2023-05-02T02:11:49.394Z,13.20
2023-05-02T02:14:21.969Z,13.20
2023-05-02T02:16:51.229Z,13.20
2023-05-02T02:19:18.046Z,13.10
2023-05-02T02:21:47.475Z,13.10
2023-05-02T02:24:14.414Z,13.10
2023-05-02T02:26:41.370Z,13.10
2023-05-02T02:29:08.313Z,13.00
2023-05-02T02:31:36.015Z,13.00
2023-05-02T02:34:03.083Z,13.00
2023-05-02T02:36:48.116Z,13.00
2023-05-02T02:39:20.857Z,13.00
2023-05-02T02:42:02.385Z,12.90
2023-05-02T02:44:55.769Z,12.90
2023-05-02T02:47:42.772Z,13.40
2023-05-02T02:50:32.695Z,12.80
2023-05-02T02:53:08.915Z,12.80
2023-05-02T02:55:56.107Z,12.80
2023-05-02T02:58:46.566Z,12.80
2023-05-02T03:01:19.678Z,12.80
2023-05-02T03:03:47.315Z,12.70
2023-05-02T03:06:14.180Z,12.70
2023-05-02T03:08:41.888Z,12.60
2023-05-02T03:13:36.722Z,12.60
2023-05-02T03:16:28.822Z,12.60
2023-05-02T03:18:55.573Z,12.60
2023-05-02T03:21:22.204Z,15.40
2023-05-02T03:23:48.801Z,12.60
2023-05-02T03:26:15.896Z,12.50
2023-05-02T03:28:42.604Z,12.50
2023-05-02T03:31:09.253Z,12.50
2023-05-02T03:33:36.051Z,12.50
2023-05-02T03:40:58.436Z,12.50
2023-05-02T03:45:52.181Z,12.40
2023-05-02T03:48:18.984Z,12.40
2023-05-02T03:50:45.648Z,12.40
2023-05-02T03:58:19.209Z,12.40
2023-05-02T04:05:40.249Z,12.30
2023-05-02T04:10:33.950Z,12.30
2023-05-02T04:15:31.927Z,12.20
2023-05-02T05:24:54.931Z,12.20
2023-05-02T05:27:22.008Z,12.30
2023-05-02T05:29:48.685Z,12.20
2023-05-02T05:32:15.657Z,12.30
2023-05-02T05:34:42.513Z,12.20
2023-05-02T05:51:53.597Z,12.30
2023-05-02T05:56:47.538Z,12.30
2023-05-02T06:01:41.656Z,12.30
2023-05-02T06:04:08.565Z,12.40
2023-05-02T06:06:35.414Z,12.40
2023-05-02T06:09:02.832Z,12.40
2023-05-02T06:11:29.489Z,12.40
2023-05-02T06:13:56.237Z,12.40
2023-05-02T06:18:51.764Z,12.50
2023-05-02T06:23:45.944Z,12.60
2023-05-02T06:33:34.596Z,12.70
2023-05-02T06:38:29.473Z,12.70
2023-05-02T06:40:56.088Z,12.80
2023-05-02T06:45:52.936Z,12.80
2023-05-02T06:53:14.011Z,12.90
2023-05-02T06:55:40.811Z,13.00
2023-05-02T06:58:07.408Z,16.40
2023-05-02T07:03:01.149Z,13.00
2023-05-02T07:10:21.887Z,13.20
2023-05-02T07:12:48.509Z,13.20
2023-05-02T07:17:43.460Z,13.20
2023-05-02T07:20:10.724Z,13.30
2023-05-02T07:22:37.339Z,13.30
2023-05-02T07:27:31.211Z,13.40
2023-05-02T07:29:57.947Z,13.40
2023-05-02T07:39:50.942Z,13.50
2023-05-02T07:42:17.532Z,13.50
2023-05-02T07:49:40.798Z,13.60
2023-05-02T07:54:35.402Z,13.60
2023-05-02T07:59:31.236Z,13.70
2023-05-02T08:01:57.960Z,13.70
2023-05-02T08:04:24.760Z,13.70
2023-05-02T08:06:51.648Z,13.70
2023-05-02T08:11:46.074Z,13.90
2023-05-02T08:19:06.940Z,14.00
2023-05-02T08:21:33.883Z,13.90
2023-05-02T08:24:00.684Z,14.00
2023-05-02T08:26:28.016Z,14.00
2023-05-02T08:33:49.382Z,14.20
2023-05-02T08:36:17.306Z,14.20
2023-05-02T08:38:44.925Z,14.20
2023-05-02T08:41:12.817Z,14.20
2023-05-02T08:43:40.096Z,14.30
2023-05-02T08:46:10.401Z,14.80
2023-05-02T08:48:37.778Z,14.40
2023-05-02T08:51:08.407Z,14.40
2023-05-02T08:53:36.045Z,14.40
2023-05-02T08:56:03.438Z,14.40
2023-05-02T08:58:32.703Z,14.60
2023-05-02T09:01:04.562Z,14.70
2023-05-02T09:03:35.630Z,14.70
2023-05-02T09:06:18.701Z,14.70
2023-05-02T09:08:49.192Z,14.80
2023-05-02T09:11:16.971Z,14.80
2023-05-02T09:13:44.284Z,18.10
2023-05-02T09:16:11.676Z,14.80
2023-05-02T09:18:47.088Z,15.10
2023-05-02T09:21:15.310Z,15.10
2023-05-02T09:23:48.261Z,15.10
2023-05-02T09:26:17.765Z,15.20
2023-05-02T09:28:51.521Z,15.30
2023-05-02T09:31:43.467Z,15.30
2023-05-02T09:34:11.482Z,16.50
2023-05-02T09:36:51.992Z,15.50
2023-05-02T09:39:22.746Z,15.60
2023-05-02T09:41:52.158Z,15.70
2023-05-02T09:44:21.295Z,15.70
2023-05-02T09:46:51.020Z,15.80
2023-05-02T09:49:21.096Z,17.10
2023-05-02T09:51:48.620Z,15.90
2023-05-02T09:54:36.212Z,16.00
2023-05-02T09:57:03.664Z,16.10
2023-05-02T09:59:30.745Z,16.20
2023-05-02T10:02:07.056Z,16.20
2023-05-02T10:04:34.595Z,16.30
2023-05-02T10:07:03.219Z,16.30
2023-05-02T10:09:32.813Z,16.50
2023-05-02T10:12:06.500Z,16.50
2023-05-02T10:14:39.034Z,16.50
2023-05-02T10:17:11.589Z,16.70
2023-05-02T10:19:52.574Z,14.70
2023-05-02T10:22:19.912Z,16.80
2023-05-02T10:27:16.263Z,16.90
2023-05-02T10:29:43.030Z,17.10
2023-05-02T10:32:09.701Z,17.10
2023-05-02T10:34:36.690Z,17.20
2023-05-02T10:37:03.612Z,17.30
2023-05-02T10:39:32.096Z,17.50
2023-05-02T10:41:59.900Z,17.60
2023-05-02T10:44:36.639Z,17.50
2023-05-02T10:50:05.240Z,17.50
2023-05-02T10:52:33.245Z,17.80
2023-05-02T10:55:19.852Z,18.00
2023-05-02T10:57:58.902Z,18.00
2023-05-02T11:00:27.275Z,18.20
2023-05-02T11:05:25.619Z,18.30
2023-05-02T11:08:19.245Z,20.80
2023-05-02T11:10:47.762Z,18.50
2023-05-02T11:13:14.460Z,18.60
2023-05-02T11:15:41.178Z,18.60
2023-05-02T11:18:08.990Z,18.90
2023-05-02T11:20:36.770Z,18.90
2023-05-02T11:23:15.785Z,18.80
2023-05-02T11:25:44.704Z,19.00
2023-05-02T11:28:39.417Z,18.80
2023-05-02T11:31:07.508Z,19.00
2023-05-02T11:38:39.007Z,19.30
2023-05-02T11:41:05.728Z,19.30
2023-05-02T11:43:32.916Z,19.40
2023-05-02T11:46:01.742Z,19.50
2023-05-02T11:48:29.199Z,19.40
2023-05-02T11:51:04.743Z,19.50
2023-05-02T11:53:31.977Z,19.60
2023-05-02T11:56:04.230Z,19.70
2023-05-02T11:58:34.898Z,19.70
2023-05-02T12:01:15.410Z,19.80
2023-05-02T12:03:42.424Z,19.90
2023-05-02T12:06:19.738Z,20.00
2023-05-02T12:08:47.412Z,20.10
2023-05-02T12:11:15.850Z,20.10
2023-05-02T12:13:47.750Z,20.00
2023-05-02T12:16:14.689Z,20.20
2023-05-02T12:18:41.478Z,20.40
2023-05-02T12:23:37.271Z,20.40
2023-05-02T12:26:18.145Z,20.50
2023-05-02T12:28:49.774Z,20.50
2023-05-02T12:33:43.928Z,20.60
2023-05-02T12:36:11.341Z,22.20
2023-05-02T12:38:38.066Z,20.70
2023-05-02T12:41:05.737Z,19.70
2023-05-02T12:43:49.030Z,20.80
2023-05-02T12:46:16.497Z,20.90
2023-05-02T12:48:44.890Z,21.70
2023-05-02T12:51:23.438Z,22.80
2023-05-02T12:53:50.074Z,21.00
2023-05-02T12:56:17.302Z,21.00
2023-05-02T12:58:47.973Z,21.10
2023-05-02T13:01:15.213Z,21.10
2023-05-02T13:03:43.040Z,21.10
2023-05-02T13:06:10.402Z,23.10
2023-05-02T13:08:37.360Z,21.20
2023-05-02T13:11:04.181Z,21.20
2023-05-02T13:13:31.247Z,21.20
2023-05-02T13:15:58.177Z,21.20
2023-05-02T13:18:25.088Z,23.40
2023-05-02T13:20:51.777Z,21.40
2023-05-02T13:25:45.630Z,21.50
2023-05-02T13:28:12.369Z,22.10
2023-05-02T13:30:39.109Z,21.60
2023-05-02T13:38:02.317Z,21.80
2023-05-02T13:40:28.985Z,21.90
2023-05-02T13:42:55.700Z,22.00
2023-05-02T13:55:13.736Z,22.50
2023-05-02T13:57:40.411Z,24.20
2023-05-02T14:00:09.583Z,22.80
2023-05-02T14:05:04.200Z,23.00
2023-05-02T14:07:30.818Z,23.10
2023-05-02T14:09:57.441Z,23.30
2023-05-02T14:12:24.116Z,23.30
2023-05-02T14:14:50.714Z,26.00
2023-05-02T14:17:17.357Z,23.20
2023-05-02T14:19:44.041Z,23.70
2023-05-02T14:22:10.765Z,23.80
2023-05-02T14:24:37.716Z,24.70
2023-05-02T14:27:04.707Z,26.30
2023-05-02T14:29:31.319Z,24.10
2023-05-02T14:31:58.096Z,24.20
2023-05-02T14:34:26.858Z,24.20
2023-05-02T14:36:53.554Z,24.40
2023-05-02T14:39:20.335Z,24.50
2023-05-02T14:41:46.992Z,24.50
2023-05-02T14:44:13.589Z,24.60
2023-05-02T14:46:40.325Z,24.80
2023-05-02T14:54:01.395Z,24.80
2023-05-02T14:56:28.189Z,25.00
2023-05-02T14:58:54.800Z,25.20
2023-05-02T15:01:22.587Z,25.70
2023-05-02T15:04:04.948Z,25.20
2023-05-02T15:06:33.873Z,25.40
2023-05-02T15:09:01.448Z,25.40
2023-05-02T15:11:28.314Z,28.70
2023-05-02T15:13:56.797Z,25.60
2023-05-02T15:18:54.127Z,25.80
2023-05-02T15:21:20.906Z,26.70
2023-05-02T15:23:47.631Z,25.80
2023-05-02T15:26:14.333Z,25.90
2023-05-02T15:31:08.234Z,26.10
2023-05-02T15:33:34.923Z,26.10
2023-05-02T15:38:29.165Z,26.30
2023-05-02T15:40:59.772Z,26.40
2023-05-02T15:43:27.401Z,26.40
2023-05-02T15:45:55.418Z,26.40
2023-05-02T15:48:22.772Z,26.50
2023-05-02T15:50:49.656Z,26.50
2023-05-02T15:53:17.285Z,26.40
2023-05-02T15:55:45.911Z,26.40
2023-05-02T15:58:21.980Z,26.40
2023-05-02T16:00:49.451Z,26.40
2023-05-02T16:03:19.212Z,26.30
2023-05-02T16:05:55.754Z,26.30
2023-05-02T16:08:25.440Z,26.30
2023-05-02T16:10:53.208Z,26.20
2023-05-02T16:13:28.043Z,26.20
2023-05-02T16:16:01.157Z,26.00
2023-05-02T16:18:44.253Z,26.10
2023-05-02T16:21:14.898Z,26.00
2023-05-02T16:23:46.598Z,25.90
2023-05-02T16:26:18.225Z,25.90
2023-05-02T16:28:52.015Z,25.80
2023-05-02T16:31:22.721Z,25.80
2023-05-02T16:33:54.534Z,25.70
2023-05-02T16:36:25.236Z,25.60
2023-05-02T16:38:54.138Z,25.40
2023-05-02T16:41:31.110Z,25.40
2023-05-02T16:43:58.363Z,25.30
2023-05-02T16:46:49.684Z,25.20
2023-05-02T16:49:19.623Z,25.10
2023-05-02T16:51:57.905Z,25.10
2023-05-02T16:54:32.325Z,25.00
2023-05-02T16:59:40.778Z,24.80
2023-05-02T17:02:21.162Z,24.70
2023-05-02T17:04:51.986Z,24.60
2023-05-02T17:07:22.382Z,24.50
2023-05-02T17:09:49.938Z,24.40
2023-05-02T17:12:24.826Z,24.40
2023-05-02T17:14:57.044Z,24.20
2023-05-02T17:17:29.929Z,24.20
2023-05-02T17:20:03.548Z,24.10
2023-05-02T17:22:37.662Z,24.00
2023-05-02T17:25:18.020Z,24.00
2023-05-02T17:27:57.751Z,23.90
2023-05-02T17:30:36.597Z,23.80
2023-05-02T17:33:14.802Z,23.70
2023-05-02T17:36:02.841Z,23.60
2023-05-02T17:41:11.625Z,23.50
2023-05-02T17:43:38.267Z,23.40
2023-05-02T17:46:09.432Z,23.30
2023-05-02T17:48:36.929Z,23.20
2023-05-02T17:51:04.781Z,23.20
2023-05-02T17:53:31.492Z,23.20
2023-05-02T17:55:58.210Z,23.10
2023-05-02T17:58:24.873Z,23.00
2023-05-02T18:00:51.922Z,22.90
2023-05-02T18:03:18.676Z,22.90
2023-05-02T18:05:47.340Z,22.80
2023-05-02T18:08:14.402Z,22.70
2023-05-02T18:10:44.430Z,22.70
2023-05-02T18:13:11.141Z,22.60
2023-05-02T18:15:37.884Z,22.60
2023-05-02T18:18:04.611Z,22.50
2023-05-02T18:20:31.623Z,22.40
2023-05-02T18:23:01.179Z,22.30
2023-05-02T18:25:27.967Z,22.30
2023-05-02T18:27:54.632Z,22.20
2023-05-02T18:30:21.301Z,22.20
2023-05-02T18:32:48.059Z,22.10
2023-05-02T18:35:14.746Z,22.10
2023-05-02T18:37:41.434Z,22.00
2023-05-02T18:40:08.723Z,21.90
2023-05-02T18:42:35.485Z,21.80
2023-05-02T18:45:02.641Z,21.80
2023-05-02T18:47:31.020Z,21.70
2023-05-02T18:49:59.537Z,21.60
2023-05-02T18:52:26.444Z,21.60
2023-05-02T18:54:53.069Z,21.50
2023-05-02T18:57:19.697Z,21.40
2023-05-02T18:59:46.338Z,21.30
2023-05-02T19:02:14.643Z,21.30
2023-05-02T19:04:41.334Z,21.20
2023-05-02T19:07:08.392Z,21.10
2023-05-02T19:09:35.041Z,21.00
2023-05-02T19:12:01.654Z,21.00
2023-05-02T19:14:28.307Z,20.90
2023-05-02T19:16:54.889Z,20.90
2023-05-02T19:19:21.509Z,20.80
2023-05-02T19:21:49.145Z,20.80
2023-05-02T19:24:16.730Z,20.70
2023-05-02T19:26:43.567Z,20.70
2023-05-02T19:29:10.517Z,20.70
2023-05-02T19:31:38.729Z,20.60
2023-05-02T19:34:05.449Z,20.60
2023-05-02T19:36:32.444Z,20.50
2023-05-02T19:38:59.215Z,20.40
2023-05-02T19:41:26.243Z,20.40
2023-05-02T19:43:52.938Z,20.40
2023-05-02T19:46:19.615Z,20.30
2023-05-02T19:48:46.355Z,20.20
2023-05-02T19:51:13.169Z,20.10
2023-05-02T19:53:39.885Z,20.10
2023-05-02T19:56:10.484Z,20.10
2023-05-02T19:58:37.164Z,20.00
2023-05-02T20:01:03.904Z,19.70
2023-05-02T20:03:30.869Z,19.90
2023-05-02T20:05:58.472Z,19.90
2023-05-02T20:08:27.601Z,19.80
2023-05-02T20:10:56.556Z,19.70
2023-05-02T20:13:23.247Z,19.70
2023-05-02T20:15:50.768Z,19.70
2023-05-02T20:18:17.702Z,19.60
2023-05-02T20:20:44.489Z,20.10
2023-05-02T20:25:39.180Z,19.50
2023-05-02T20:28:06.998Z,19.40
2023-05-02T20:30:33.794Z,19.30
2023-05-02T20:33:10.458Z,19.30
2023-05-02T20:35:41.301Z,19.30
2023-05-02T20:38:08.102Z,19.20
2023-05-02T20:40:35.234Z,19.10
2023-05-02T20:43:02.274Z,19.10
2023-05-02T20:45:29.009Z,19.00
2023-05-02T20:47:55.753Z,19.00
2023-05-02T20:50:22.867Z,18.90
2023-05-02T20:52:49.609Z,18.90
2023-05-02T20:55:16.444Z,18.90
2023-05-02T20:57:45.529Z,18.80
2023-05-02T21:00:13.669Z,18.80
2023-05-02T21:02:40.925Z,18.70
2023-05-02T21:05:07.914Z,18.70
2023-05-02T21:07:34.668Z,18.60
2023-05-02T21:10:01.809Z,18.60
2023-05-02T21:12:28.784Z,18.60
2023-05-02T21:14:55.601Z,18.50
2023-05-02T21:17:22.243Z,18.50
2023-05-02T21:19:49.164Z,18.50
2023-05-02T21:22:15.850Z,18.40
2023-05-02T21:24:42.491Z,18.40
2023-05-02T21:27:09.096Z,18.30
2023-05-02T21:29:35.784Z,18.30
2023-05-02T21:32:02.583Z,18.30
2023-05-02T21:34:29.431Z,18.20
2023-05-02T21:36:56.121Z,20.20
2023-05-02T21:39:22.736Z,18.10
2023-05-02T21:41:49.338Z,18.10
2023-05-02T21:44:15.967Z,18.10
2023-05-02T21:46:42.827Z,18.00
2023-05-02T21:49:09.535Z,18.00
2023-05-02T21:51:38.519Z,17.90
2023-05-02T21:54:05.352Z,17.90
2023-05-02T21:56:32.114Z,17.90
2023-05-02T21:58:58.793Z,17.80
2023-05-02T22:01:25.648Z,17.80
2023-05-02T22:03:52.308Z,19.40
2023-05-02T22:06:19.033Z,17.70
2023-05-02T22:08:46.269Z,17.60
2023-05-02T22:11:13.006Z,17.60
2023-05-02T22:13:39.956Z,17.60
2023-05-02T22:16:07.484Z,17.50
2023-05-02T22:18:34.131Z,17.40
2023-05-02T22:21:02.048Z,17.40
2023-05-02T22:23:28.737Z,17.40
2023-05-02T22:25:56.124Z,17.40
2023-05-02T22:28:22.950Z,17.30
2023-05-02T22:30:49.651Z,18.50
2023-05-02T22:33:16.339Z,17.20
2023-05-02T22:35:43.060Z,17.10
2023-05-02T22:38:15.071Z,17.10
2023-05-02T22:40:41.849Z,17.10
2023-05-02T22:43:08.489Z,17.10
2023-05-02T22:45:36.411Z,17.00
2023-05-02T22:48:03.258Z,17.00
2023-05-02T22:50:30.163Z,16.90
2023-05-02T22:52:57.168Z,16.90
2023-05-02T22:55:24.265Z,16.90
2023-05-02T22:57:51.018Z,16.80
2023-05-02T23:00:17.815Z,16.70
2023-05-02T23:02:45.022Z,16.70
2023-05-02T23:05:12.100Z,16.70
2023-05-02T23:07:38.962Z,16.60
2023-05-02T23:10:06.533Z,16.60
2023-05-02T23:12:33.196Z,16.60
2023-05-02T23:15:00.130Z,16.50
2023-05-02T23:17:26.781Z,16.50
2023-05-02T23:19:53.405Z,16.40
2023-05-02T23:22:20.016Z,16.40
2023-05-02T23:24:47.722Z,16.40
2023-05-02T23:27:14.372Z,16.30
2023-05-02T23:29:41.035Z,16.30
2023-05-02T23:32:08.028Z,16.20
2023-05-02T23:34:36.524Z,16.20
2023-05-02T23:37:03.208Z,16.20
2023-05-02T23:39:30.352Z,16.10
2023-05-02T23:41:57.149Z,16.10
2023-05-02T23:44:23.868Z,16.00
2023-05-02T23:46:50.653Z,16.00
2023-05-02T23:49:17.290Z,16.00
2023-05-02T23:51:43.958Z,15.90
2023-05-02T23:54:10.853Z,15.90
2023-05-02T23:56:37.710Z,15.90
2023-05-02T23:59:04.941Z,15.80
